Reno, Nevada
Current Conditions -  °F | °C
As of 1:55 PM on Sunday 23 Nov 2014 (Local Time) from KRNO Reporting Station
Overcast Overcast  
Wind Chill: 44°   Ceiling: 14000
Heat Index: 44°   Visibility: 10mi
Dew Point: 25°   Wind: 0mph
Humidity: 47%   Direction: NA
Pressure: 30.31"   Gusts: NA
Location:  39.52°N, 119.81°W
Report Text: KRNO 232155Z 00000KT 10SM SCT110 BKN140 OVC180 07/M04 A3031 RMK AO2 SLP264 T00671039
Loading
Personal Weather Stations






























Interactive Weather Map New forecast layout! Learn more

10-Day Weather Forecast

Advertisements
Track Severe Weather on mobile